sensor_id;sensor_type;location;lat;lon;timestamp;P1;durP1;ratioP1;P2;durP2;ratioP2
61739;SDS011;47645;45.288;12.038;2024-01-10T00:03:53;15.8;;;6.6;;
61739;SDS011;47645;45.288;12.038;2024-01-10T00:13:59;12.8;;;6.3;;
61739;SDS011;47645;45.288;12.038;2024-01-10T00:23:54;14.2;;;6.8;;
61739;SDS011;47645;45.288;12.038;2024-01-10T00:33:54;13.3;;;6.8;;
61739;SDS011;47645;45.288;12.038;2024-01-10T00:43:54;11.1;;;6.5;;
61739;SDS011;47645;45.288;12.038;2024-01-10T00:53:54;12.4;;;6.8;;
61739;SDS011;47645;45.288;12.038;2024-01-10T01:03:55;14.4;;;7.5;;
61739;SDS011;47645;45.288;12.038;2024-01-10T01:13:55;12.7;;;6.7;;
61739;SDS011;47645;45.288;12.038;2024-01-10T01:23:55;14.1;;;6.6;;
61739;SDS011;47645;45.288;12.038;2024-01-10T01:33:56;13.6;;;7.7;;
61739;SDS011;47645;45.288;12.038;2024-01-10T01:43:56;13.7;;;7.3;;
61739;SDS011;47645;45.288;12.038;2024-01-10T01:53:56;14.4;;;6.7;;
61739;SDS011;47645;45.288;12.038;2024-01-10T02:03:57;11.9;;;5.3;;
61739;SDS011;47645;45.288;12.038;2024-01-10T02:13:57;12.7;;;6.1;;
61739;SDS011;47645;45.288;12.038;2024-01-10T02:23:57;11.5;;;6.6;;
61739;SDS011;47645;45.288;12.038;2024-01-10T02:33:58;12.2;;;6.5;;
61739;SDS011;47645;45.288;12.038;2024-01-10T02:43:59;12.2;;;6.5;;
61739;SDS011;47645;45.288;12.038;2024-01-10T02:53:58;11.8;;;6.3;;
61739;SDS011;47645;45.288;12.038;2024-01-10T03:03:59;14.5;;;7.2;;
61739;SDS011;47645;45.288;12.038;2024-01-10T03:14:01;11.9;;;6.7;;
61739;SDS011;47645;45.288;12.038;2024-01-10T03:24:00;10.9;;;5.8;;
61739;SDS011;47645;45.288;12.038;2024-01-10T03:34:00;12.0;;;6.8;;
61739;SDS011;47645;45.288;12.038;2024-01-10T03:44:00;13.3;;;6.4;;
61739;SDS011;47645;45.288;12.038;2024-01-10T03:54:00;9.5;;;5.0;;
61739;SDS011;47645;45.288;12.038;2024-01-10T04:04:00;11.3;;;6.0;;
61739;SDS011;47645;45.288;12.038;2024-01-10T04:14:01;13.4;;;6.2;;
61739;SDS011;47645;45.288;12.038;2024-01-10T04:24:01;13.4;;;6.6;;
61739;SDS011;47645;45.288;12.038;2024-01-10T04:34:02;12.1;;;6.2;;
61739;SDS011;47645;45.288;12.038;2024-01-10T04:44:02;13.8;;;6.7;;
61739;SDS011;47645;45.288;12.038;2024-01-10T04:54:02;11.5;;;6.2;;
61739;SDS011;47645;45.288;12.038;2024-01-10T05:04:03;12.0;;;7.3;;
61739;SDS011;47645;45.288;12.038;2024-01-10T05:14:03;11.8;;;6.2;;
61739;SDS011;47645;45.288;12.038;2024-01-10T05:24:04;11.5;;;6.3;;
61739;SDS011;47645;45.288;12.038;2024-01-10T05:34:05;12.9;;;7.2;;
61739;SDS011;47645;45.288;12.038;2024-01-10T05:44:05;10.2;;;6.2;;
61739;SDS011;47645;45.288;12.038;2024-01-10T05:54:04;12.8;;;6.7;;
61739;SDS011;47645;45.288;12.038;2024-01-10T06:04:04;12.6;;;6.6;;
61739;SDS011;47645;45.288;12.038;2024-01-10T06:14:05;14.4;;;8.9;;
61739;SDS011;47645;45.288;12.038;2024-01-10T06:24:05;13.9;;;8.0;;
61739;SDS011;47645;45.288;12.038;2024-01-10T06:34:06;15.5;;;7.7;;
61739;SDS011;47645;45.288;12.038;2024-01-10T06:44:07;13.3;;;8.0;;
61739;SDS011;47645;45.288;12.038;2024-01-10T06:54:06;15.0;;;8.8;;
61739;SDS011;47645;45.288;12.038;2024-01-10T07:04:07;12.4;;;7.3;;
61739;SDS011;47645;45.288;12.038;2024-01-10T07:14:07;15.1;;;8.2;;
61739;SDS011;47645;45.288;12.038;2024-01-10T07:24:09;14.3;;;8.2;;
61739;SDS011;47645;45.288;12.038;2024-01-10T07:34:08;12.8;;;7.7;;
61739;SDS011;47645;45.288;12.038;2024-01-10T07:44:09;15.2;;;8.2;;
61739;SDS011;47645;45.288;12.038;2024-01-10T07:54:08;16.2;;;9.0;;
61739;SDS011;47645;45.288;12.038;2024-01-10T08:04:09;17.0;;;9.4;;
61739;SDS011;47645;45.288;12.038;2024-01-10T08:14:09;17.3;;;9.7;;
61739;SDS011;47645;45.288;12.038;2024-01-10T08:24:10;15.0;;;8.5;;
61739;SDS011;47645;45.288;12.038;2024-01-10T08:34:10;17.7;;;8.7;;
61739;SDS011;47645;45.288;12.038;2024-01-10T08:44:10;16.6;;;9.8;;
61739;SDS011;47645;45.288;12.038;2024-01-10T08:54:13;14.2;;;7.3;;
61739;SDS011;47645;45.288;12.038;2024-01-10T09:04:11;14.3;;;8.4;;
61739;SDS011;47645;45.288;12.038;2024-01-10T09:14:12;15.9;;;8.9;;
61739;SDS011;47645;45.288;12.038;2024-01-10T09:24:14;15.6;;;9.5;;
61739;SDS011;47645;45.288;12.038;2024-01-10T09:34:13;15.1;;;8.4;;
61739;SDS011;47645;45.288;12.038;2024-01-10T09:44:13;15.8;;;9.1;;
61739;SDS011;47645;45.288;12.038;2024-01-10T09:54:13;14.5;;;8.1;;
61739;SDS011;47645;45.288;12.038;2024-01-10T10:04:15;16.2;;;7.9;;
61739;SDS011;47645;45.288;12.038;2024-01-10T10:14:14;14.5;;;7.9;;
61739;SDS011;47645;45.288;12.038;2024-01-10T10:24:15;12.9;;;7.2;;
61739;SDS011;47645;45.288;12.038;2024-01-10T10:34:16;15.1;;;8.6;;
61739;SDS011;47645;45.288;12.038;2024-01-10T10:44:15;18.1;;;9.9;;
61739;SDS011;47645;45.288;12.038;2024-01-10T10:54:16;17.2;;;10.6;;
61739;SDS011;47645;45.288;12.038;2024-01-10T11:04:16;16.8;;;9.7;;
61739;SDS011;47645;45.288;12.038;2024-01-10T11:14:20;12.8;;;7.2;;
61739;SDS011;47645;45.288;12.038;2024-01-10T11:24:17;14.2;;;8.1;;
61739;SDS011;47645;45.288;12.038;2024-01-10T11:34:22;15.5;;;8.0;;
61739;SDS011;47645;45.288;12.038;2024-01-10T11:44:25;16.4;;;8.5;;
61739;SDS011;47645;45.288;12.038;2024-01-10T11:54:50;14.9;;;7.6;;
61739;SDS011;47645;45.288;12.038;2024-01-10T12:04:19;16.1;;;8.7;;
61739;SDS011;47645;45.288;12.038;2024-01-10T12:14:21;15.7;;;7.1;;
61739;SDS011;47645;45.288;12.038;2024-01-10T12:24:21;12.9;;;7.4;;
61739;SDS011;47645;45.288;12.038;2024-01-10T12:34:22;13.5;;;7.7;;
61739;SDS011;47645;45.288;12.038;2024-01-10T12:44:21;12.4;;;7.0;;
61739;SDS011;47645;45.288;12.038;2024-01-10T12:54:22;11.2;;;6.4;;
61739;SDS011;47645;45.288;12.038;2024-01-10T13:04:23;13.6;;;6.6;;
61739;SDS011;47645;45.288;12.038;2024-01-10T13:14:23;16.2;;;7.9;;
61739;SDS011;47645;45.288;12.038;2024-01-10T13:24:23;13.6;;;8.1;;
61739;SDS011;47645;45.288;12.038;2024-01-10T13:34:24;13.6;;;6.9;;
61739;SDS011;47645;45.288;12.038;2024-01-10T13:44:25;12.3;;;7.0;;
61739;SDS011;47645;45.288;12.038;2024-01-10T13:54:24;15.6;;;6.7;;
61739;SDS011;47645;45.288;12.038;2024-01-10T14:04:25;11.7;;;7.1;;
61739;SDS011;47645;45.288;12.038;2024-01-10T14:14:25;13.7;;;7.0;;
61739;SDS011;47645;45.288;12.038;2024-01-10T14:24:26;13.3;;;6.4;;
61739;SDS011;47645;45.288;12.038;2024-01-10T14:34:26;11.0;;;6.4;;
61739;SDS011;47645;45.288;12.038;2024-01-10T14:44:27;12.3;;;6.4;;
61739;SDS011;47645;45.288;12.038;2024-01-10T14:54:27;11.2;;;6.7;;
61739;SDS011;47645;45.288;12.038;2024-01-10T15:04:28;12.8;;;7.6;;
61739;SDS011;47645;45.288;12.038;2024-01-10T15:14:29;15.8;;;7.8;;
61739;SDS011;47645;45.288;12.038;2024-01-10T15:24:29;12.5;;;6.5;;
61739;SDS011;47645;45.288;12.038;2024-01-10T15:34:29;13.6;;;7.6;;
61739;SDS011;47645;45.288;12.038;2024-01-10T15:44:30;13.6;;;7.3;;
61739;SDS011;47645;45.288;12.038;2024-01-10T15:54:37;14.8;;;8.2;;
61739;SDS011;47645;45.288;12.038;2024-01-10T16:04:31;18.5;;;7.7;;
61739;SDS011;47645;45.288;12.038;2024-01-10T16:14:32;18.9;;;10.3;;
61739;SDS011;47645;45.288;12.038;2024-01-10T16:24:32;38.7;;;19.7;;
61739;SDS011;47645;45.288;12.038;2024-01-10T16:34:32;21.7;;;10.4;;
61739;SDS011;47645;45.288;12.038;2024-01-10T16:44:33;22.8;;;10.1;;
61739;SDS011;47645;45.288;12.038;2024-01-10T16:54:33;18.7;;;9.6;;
61739;SDS011;47645;45.288;12.038;2024-01-10T17:04:33;18.9;;;10.5;;
61739;SDS011;47645;45.288;12.038;2024-01-10T17:14:34;17.0;;;9.6;;
61739;SDS011;47645;45.288;12.038;2024-01-10T17:24:34;22.1;;;10.8;;
61739;SDS011;47645;45.288;12.038;2024-01-10T17:34:35;18.4;;;10.3;;
61739;SDS011;47645;45.288;12.038;2024-01-10T17:44:37;17.6;;;9.8;;
61739;SDS011;47645;45.288;12.038;2024-01-10T17:54:35;18.0;;;9.2;;
61739;SDS011;47645;45.288;12.038;2024-01-10T18:04:36;19.2;;;10.5;;
61739;SDS011;47645;45.288;12.038;2024-01-10T18:14:36;19.8;;;10.4;;
61739;SDS011;47645;45.288;12.038;2024-01-10T18:24:36;19.0;;;10.6;;
61739;SDS011;47645;45.288;12.038;2024-01-10T18:34:37;22.0;;;12.2;;
61739;SDS011;47645;45.288;12.038;2024-01-10T18:44:37;21.2;;;10.8;;
61739;SDS011;47645;45.288;12.038;2024-01-10T18:54:37;25.5;;;12.1;;
61739;SDS011;47645;45.288;12.038;2024-01-10T19:04:38;22.8;;;12.0;;
61739;SDS011;47645;45.288;12.038;2024-01-10T19:14:38;20.9;;;11.6;;
61739;SDS011;47645;45.288;12.038;2024-01-10T19:24:39;22.2;;;12.3;;
61739;SDS011;47645;45.288;12.038;2024-01-10T19:34:39;24.0;;;13.3;;
61739;SDS011;47645;45.288;12.038;2024-01-10T19:44:39;25.8;;;14.4;;
61739;SDS011;47645;45.288;12.038;2024-01-10T19:54:40;27.4;;;15.5;;
61739;SDS011;47645;45.288;12.038;2024-01-10T20:04:40;26.9;;;15.5;;
61739;SDS011;47645;45.288;12.038;2024-01-10T20:14:41;26.5;;;15.0;;
61739;SDS011;47645;45.288;12.038;2024-01-10T20:24:44;22.2;;;13.2;;
61739;SDS011;47645;45.288;12.038;2024-01-10T20:34:41;25.5;;;14.9;;
61739;SDS011;47645;45.288;12.038;2024-01-10T20:44:44;26.5;;;14.5;;
61739;SDS011;47645;45.288;12.038;2024-01-10T20:54:42;24.2;;;12.5;;
61739;SDS011;47645;45.288;12.038;2024-01-10T21:04:42;23.2;;;13.4;;
61739;SDS011;47645;45.288;12.038;2024-01-10T21:14:43;26.0;;;13.4;;
61739;SDS011;47645;45.288;12.038;2024-01-10T21:24:43;26.6;;;14.4;;
61739;SDS011;47645;45.288;12.038;2024-01-10T21:34:43;25.2;;;13.0;;
61739;SDS011;47645;45.288;12.038;2024-01-10T21:44:43;24.7;;;13.6;;
61739;SDS011;47645;45.288;12.038;2024-01-10T21:54:45;26.2;;;14.6;;
61739;SDS011;47645;45.288;12.038;2024-01-10T22:04:44;29.6;;;15.0;;
61739;SDS011;47645;45.288;12.038;2024-01-10T22:14:44;26.7;;;15.5;;
61739;SDS011;47645;45.288;12.038;2024-01-10T22:24:45;29.8;;;15.2;;
61739;SDS011;47645;45.288;12.038;2024-01-10T22:34:45;26.7;;;14.3;;
61739;SDS011;47645;45.288;12.038;2024-01-10T22:44:45;25.8;;;14.4;;
61739;SDS011;47645;45.288;12.038;2024-01-10T22:54:46;28.0;;;14.6;;
61739;SDS011;47645;45.288;12.038;2024-01-10T23:04:46;29.0;;;14.7;;
61739;SDS011;47645;45.288;12.038;2024-01-10T23:14:46;29.1;;;14.7;;
61739;SDS011;47645;45.288;12.038;2024-01-10T23:24:47;28.7;;;14.5;;
61739;SDS011;47645;45.288;12.038;2024-01-10T23:34:49;25.7;;;14.3;;
61739;SDS011;47645;45.288;12.038;2024-01-10T23:44:47;21.4;;;13.2;;
61739;SDS011;47645;45.288;12.038;2024-01-10T23:54:48;22.8;;;12.0;;
